Loncopue, Argentina
Current Conditions -  °F | °C
As of 8:00 PM on Friday 24 Oct 2014 (Local Time) from SCQP Reporting Station
Clear Clear  
Wind Chill: 17°   Ceiling: Unl
Heat Index: 17°   Visibility: 6mi
Dew Point: 12°   Wind: 8mph
Humidity: 72%   Direction: 260°W
Pressure: 30.03"   Gusts: NA
Location:  38.07°S, 70.62°W
Report Text: SCQP 242300Z 26007KT CAVOK 17/12 Q1017
Loading
Personal Weather Stations






























Interactive Weather Map
Tropical Storm Tracking
New forecast layout! Learn more

10-Day Weather Forecast

Advertisements
Track Severe Weather on mobile